Time;durP1;ratioP1;P1;durP2;ratioP2;P2;SDS_P1;SDS_P2;PMS_P1;PMS_P2;Temp;Humidity;BMP_temperature;BMP_pressure;BME280_temperature;BME280_humidity;BME280_pressure;Samples;Min_cycle;Max_cycle;Signal;HPM_P1;HPM_P2
2022/03/13 00:02:23;;;;;;;;;;;;;;;-1.37;81.46;100136.05;1639332;86;20103;-66
2022/03/13 00:04:54;;;;;;;;;;;;;;;-1.39;81.89;100140.83;1640156;87;20131;-66
2022/03/13 00:07:19;;;;;;;;;;;;;;;-1.37;82.19;100137.39;1639930;87;20808;-66
2022/03/13 00:09:51;;;;;;;;;;;;;;;-1.41;82.54;100140.23;1640129;87;20107;-66
2022/03/13 00:12:29;;;;;;;;;;;;;;;-1.42;83.33;100143.15;1640474;87;21791;-66
2022/03/13 00:14:49;;;;;;;;;;;;;;;-1.40;84.01;100134.33;1639317;87;20431;-66
2022/03/13 00:17:17;;;;;;;;;;;;;;;-1.36;84.22;100145.77;1640129;86;20128;-66
2022/03/13 00:19:44;;;;;;;;;;;;;;;-1.34;84.41;100136.13;1640206;87;20092;-66
2022/03/13 00:22:13;;;;;;;;;;;;;;;-1.30;84.77;100137.32;1640280;87;20107;-66
2022/03/13 00:24:40;;;;;;;;;;;;;;;-1.25;85.18;100142.04;1640203;87;21265;-65
2022/03/13 00:27:07;;;;;;;;;;;;;;;-1.27;85.18;100140.92;1640043;87;20434;-66
2022/03/13 00:29:36;;;;;;;;;;;;;;;-1.28;85.48;100145.18;1619896;87;20120;-66
2022/03/13 00:32:04;;;;;;;;;;;;;;;-1.29;86.01;100142.19;1640359;87;20104;-65
2022/03/13 00:34:32;;;;;;;;;;;;;;;-1.24;86.29;100136.42;1640485;87;20132;-65
2022/03/13 00:37:01;;;;;;;;;;;;;;;-1.25;86.60;100141.52;1640211;87;21124;-66
2022/03/13 00:39:28;;;;;;;;;;;;;;;-1.24;86.80;100147.73;1640168;86;20111;-67
2022/03/13 00:41:56;;;;;;;;;;;;;;;-1.21;87.23;100140.55;1640255;87;20163;-67
2022/03/13 00:44:23;;;;;;;;;;;;;;;-1.17;87.45;100144.44;1640075;87;20151;-67
2022/03/13 00:46:50;;;;;;;;;;;;;;;-1.18;87.52;100147.66;1640240;87;20143;-67
2022/03/13 00:49:17;;;;;;;;;;;;;;;-1.17;87.70;100153.34;1640223;87;21165;-67
2022/03/13 00:51:44;;;;;;;;;;;;;;;-1.17;87.91;100151.17;1640064;87;20131;-70
2022/03/13 00:54:13;;;;;;;;;;;;;;;-1.15;88.25;100150.39;1640206;87;20108;-69
2022/03/13 00:56:39;;;;;;;;;;;;;;;-1.11;88.40;100150.25;1640220;87;20123;-69
2022/03/13 00:59:08;;;;;;;;;;;;;;;-1.12;88.22;100148.59;1640292;87;20112;-69
2022/03/13 01:01:37;;;;;;;;;;;;;;;-1.12;88.53;100152.12;1640257;87;21171;-69
2022/03/13 01:04:05;;;;;;;;;;;;;;;-1.15;88.38;100156.61;1643353;86;20132;-68
2022/03/13 01:06:31;;;;;;;;;;;;;;;-1.17;88.86;100157.91;1646095;87;20107;-68
2022/03/13 01:08:58;;;;;;;;;;;;;;;-1.21;88.89;100155.36;1679544;85;20442;-68
2022/03/13 01:11:27;;;;;;;;;;;;;;;-1.24;89.02;100159.33;1679350;85;20426;-68
2022/03/13 01:13:54;;;;;;;;;;;;;;;-1.27;89.49;100157.08;1679421;85;21258;-68
2022/03/13 01:16:25;;;;;;;;;;;;;;;-1.27;89.70;100161.64;1679095;84;20095;-68
2022/03/13 01:18:58;;;;;;;;;;;;;;;-1.28;89.85;100163.52;1679291;84;20111;-73
2022/03/13 01:21:27;;;;;;;;;;;;;;;-1.27;90.00;100157.60;1679778;85;20075;-68
2022/03/13 01:24:09;;;;;;;;;;;;;;;-1.25;90.32;100158.20;1678993;84;20406;-68
2022/03/13 01:26:38;;;;;;;;;;;;;;;-1.26;90.47;100156.55;1679382;84;21175;-65
2022/03/13 01:29:12;;;;;;;;;;;;;;;-1.24;90.42;100158.50;1679189;84;20151;-65
2022/03/13 01:31:41;;;;;;;;;;;;;;;-1.25;90.43;100157.68;1679577;85;20125;-65
2022/03/13 01:34:11;;;;;;;;;;;;;;;-1.24;90.54;100159.85;1679252;84;20123;-65
2022/03/13 01:36:38;;;;;;;;;;;;;;;-1.26;90.56;100157.38;1679570;85;20123;-65
2022/03/13 01:39:06;;;;;;;;;;;;;;;-1.25;90.68;100159.55;1679326;85;21321;-71
2022/03/13 01:41:34;;;;;;;;;;;;;;;-1.23;90.96;100159.63;1679263;85;20095;-71
2022/03/13 01:44:01;;;;;;;;;;;;;;;-1.17;91.05;100159.26;1679545;85;20437;-71
2022/03/13 01:46:28;;;;;;;;;;;;;;;-1.13;90.75;100162.59;1679295;85;20136;-68
2022/03/13 01:49:03;;;;;;;;;;;;;;;-1.12;90.68;100158.03;1679251;85;20466;-65
2022/03/13 01:51:32;;;;;;;;;;;;;;;-1.11;90.41;100162.37;1679676;84;20726;-65
2022/03/13 01:54:01;;;;;;;;;;;;;;;-1.11;90.77;100165.06;1679077;85;20446;-66
2022/03/13 01:56:31;;;;;;;;;;;;;;;-1.07;90.65;100163.56;1679460;84;20488;-66
2022/03/13 01:58:58;;;;;;;;;;;;;;;-1.10;90.51;100168.88;1660723;85;20099;-66
2022/03/13 02:01:27;;;;;;;;;;;;;;;-1.10;90.49;100168.06;1679241;85;20103;-71
2022/03/13 02:03:55;;;;;;;;;;;;;;;-1.10;90.84;100169.41;1674771;84;21185;-68
2022/03/13 02:06:27;;;;;;;;;;;;;;;-1.08;90.91;100171.35;1666354;86;20432;-67
2022/03/13 02:08:51;;;;;;;;;;;;;;;-1.09;90.64;100173.75;1636078;86;20084;-67
2022/03/13 02:11:24;;;;;;;;;;;;;;;-1.10;90.67;100172.10;1635798;88;20164;-68
2022/03/13 02:13:53;;;;;;;;;;;;;;;-1.11;90.77;100173.15;1635841;88;20442;-67
2022/03/13 02:16:20;;;;;;;;;;;;;;;-1.10;90.97;100172.10;1631841;86;21118;-66
2022/03/13 02:18:51;;;;;;;;;;;;;;;-1.11;90.74;100174.50;1604705;88;20119;-67
2022/03/13 02:21:25;;;;;;;;;;;;;;;-1.12;90.78;100172.84;1601256;89;20482;-66
2022/03/13 02:23:55;;;;;;;;;;;;;;;-1.15;90.85;100177.34;1584791;90;20427;-66
2022/03/13 02:26:23;;;;;;;;;;;;;;;-1.16;91.16;100178.41;1584466;90;20104;-66
2022/03/13 02:28:53;;;;;;;;;;;;;;;-1.21;91.08;100183.65;1584539;90;21728;-66
2022/03/13 02:31:30;;;;;;;;;;;;;;;-1.23;91.32;100192.48;1584498;90;20244;-65
2022/03/13 02:33:57;;;;;;;;;;;;;;;-1.25;91.43;100187.31;1604733;89;20425;-65
2022/03/13 02:36:34;;;;;;;;;;;;;;;-1.28;91.73;100186.94;1607069;89;20827;-65
2022/03/13 02:39:03;;;;;;;;;;;;;;;-1.27;92.08;100190.75;1607362;89;20441;-65
2022/03/13 02:41:30;;;;;;;;;;;;;;;-1.25;92.05;100193.22;1606769;89;21193;-65
2022/03/13 02:43:58;;;;;;;;;;;;;;;-1.24;92.25;100198.39;1607002;87;20107;-65
2022/03/13 02:46:45;;;;;;;;;;;;;;;-1.19;92.35;100202.59;1606992;89;20095;-65
2022/03/13 02:49:14;;;;;;;;;;;;;;;-1.15;92.15;100198.89;1607060;89;20205;-65
2022/03/13 02:51:42;;;;;;;;;;;;;;;-1.16;91.99;100202.66;1607256;89;20465;-65
2022/03/13 02:54:08;;;;;;;;;;;;;;;-1.15;92.22;100197.02;1607011;89;21980;-66
2022/03/13 02:56:35;;;;;;;;;;;;;;;-1.14;92.25;100202.71;1607001;89;20094;-66
2022/03/13 02:59:05;;;;;;;;;;;;;;;-1.14;92.23;100209.45;1607266;89;20159;-65
2022/03/13 03:01:33;;;;;;;;;;;;;;;-1.16;92.17;100204.02;1607075;89;20175;-72
2022/03/13 03:04:01;;;;;;;;;;;;;;;-1.15;92.33;100205.63;1614180;86;20184;-71
2022/03/13 03:06:29;;;;;;;;;;;;;;;-1.17;92.47;100204.53;1637463;87;21173;-66
2022/03/13 03:08:57;;;;;;;;;;;;;;;-1.18;92.63;100204.76;1637343;87;20119;-66
2022/03/13 03:11:24;;;;;;;;;;;;;;;-1.13;92.81;100210.27;1637352;87;20192;-70
2022/03/13 03:13:52;;;;;;;;;;;;;;;-1.11;92.83;100208.17;1637401;87;20167;-70
2022/03/13 03:16:18;;;;;;;;;;;;;;;-1.07;92.87;100210.20;1637423;86;20154;-70
2022/03/13 03:18:46;;;;;;;;;;;;;;;-1.05;92.87;100212.16;1617622;87;21901;-66
2022/03/13 03:21:13;;;;;;;;;;;;;;;-1.02;92.63;100216.27;1611160;89;20122;-66
2022/03/13 03:23:40;;;;;;;;;;;;;;;-1.00;92.64;100216.87;1611309;89;20202;-67
2022/03/13 03:26:07;;;;;;;;;;;;;;;-0.97;92.92;100219.12;1611166;89;20133;-66
2022/03/13 03:28:36;;;;;;;;;;;;;;;-0.92;92.83;100211.70;1611328;89;20616;-68
2022/03/13 03:31:03;;;;;;;;;;;;;;;-0.89;92.51;100225.56;1611473;89;21884;-66
2022/03/13 03:33:32;;;;;;;;;;;;;;;-0.90;92.38;100216.35;1610755;88;20496;-67
2022/03/13 03:35:59;;;;;;;;;;;;;;;-0.87;92.48;100226.16;1602047;88;20147;-67
2022/03/13 03:38:26;;;;;;;;;;;;;;;-0.91;92.44;100222.79;1596059;89;20756;-66
2022/03/13 03:40:53;;;;;;;;;;;;;;;-0.92;92.56;100223.31;1586003;90;20128;-67
2022/03/13 03:43:20;;;;;;;;;;;;;;;-0.92;92.61;100223.84;1585902;90;21296;-66
2022/03/13 03:45:49;;;;;;;;;;;;;;;-0.94;92.60;100232.15;1585958;90;20160;-66
2022/03/13 03:48:20;;;;;;;;;;;;;;;-0.99;92.64;100236.03;1586003;90;20506;-66
2022/03/13 03:50:47;;;;;;;;;;;;;;;-1.04;93.40;100237.23;1585895;90;21009;-66
2022/03/13 03:53:14;;;;;;;;;;;;;;;-1.09;93.38;100242.46;1585899;90;20489;-67
2022/03/13 03:55:41;;;;;;;;;;;;;;;-1.11;93.73;100236.47;1585947;90;21278;-66
2022/03/13 03:58:09;;;;;;;;;;;;;;;-1.10;93.97;100238.12;1567063;90;20202;-66
2022/03/13 04:00:37;;;;;;;;;;;;;;;-1.11;93.81;100245.90;1586095;90;20475;-67
2022/03/13 04:03:04;;;;;;;;;;;;;;;-1.16;93.89;100243.08;1585966;90;20171;-67
2022/03/13 04:05:32;;;;;;;;;;;;;;;-1.18;93.86;100245.17;1601149;88;20161;-67
2022/03/13 04:08:00;;;;;;;;;;;;;;;-1.20;94.20;100246.73;1609872;89;21202;-66
2022/03/13 04:10:28;;;;;;;;;;;;;;;-1.21;94.13;100254.52;1609909;89;20108;-67
2022/03/13 04:12:55;;;;;;;;;;;;;;;-1.22;94.10;100252.05;1609971;89;20133;-67
2022/03/13 04:15:23;;;;;;;;;;;;;;;-1.22;94.21;100250.70;1610161;87;20131;-67
2022/03/13 04:17:50;;;;;;;;;;;;;;;-1.21;94.26;100252.35;1629527;86;20098;-63
2022/03/13 04:20:17;;;;;;;;;;;;;;;-1.20;94.25;100252.65;1635937;88;21127;-67
2022/03/13 04:22:44;;;;;;;;;;;;;;;-1.17;94.33;100253.55;1636228;87;20436;-67
2022/03/13 04:25:11;;;;;;;;;;;;;;;-1.16;94.11;100249.81;1636241;88;20487;-66
2022/03/13 04:27:40;;;;;;;;;;;;;;;-1.16;94.02;100256.55;1636091;87;20147;-67
2022/03/13 04:30:08;;;;;;;;;;;;;;;-1.15;93.91;100257.64;1625571;87;20104;-67
2022/03/13 04:32:35;;;;;;;;;;;;;;;-1.14;94.05;100259.81;1636165;87;20803;-66
2022/03/13 04:35:02;;;;;;;;;;;;;;;-1.17;94.14;100253.55;1636225;87;20128;-66
2022/03/13 04:37:30;;;;;;;;;;;;;;;-1.19;93.85;100264.55;1636146;87;20116;-71
2022/03/13 04:39:57;;;;;;;;;;;;;;;-1.19;93.79;100268.59;1636155;87;20153;-66
2022/03/13 04:42:24;;;;;;;;;;;;;;;-1.19;93.73;100271.81;1635405;87;20127;-67
2022/03/13 04:44:52;;;;;;;;;;;;;;;-1.17;93.68;100277.80;1641896;86;21260;-67
2022/03/13 04:47:18;;;;;;;;;;;;;;;-1.18;93.43;100285.06;1640554;85;20092;-67
2022/03/13 04:49:48;;;;;;;;;;;;;;;-1.16;93.44;100286.19;1638491;87;20104;-68
2022/03/13 04:52:15;;;;;;;;;;;;;;;-1.14;93.44;100286.76;1640985;87;20908;-68
2022/03/13 04:54:41;;;;;;;;;;;;;;;-1.14;93.10;100285.41;1636560;87;20175;-68
2022/03/13 04:57:08;;;;;;;;;;;;;;;-1.16;92.99;100287.53;1639985;87;21137;-67
2022/03/13 04:59:35;;;;;;;;;;;;;;;-1.16;93.08;100292.92;1640332;87;20090;-68
2022/03/13 05:02:04;;;;;;;;;;;;;;;-1.15;93.10;100305.32;1641633;87;20080;-67
2022/03/13 05:04:34;;;;;;;;;;;;;;;-1.15;92.93;100302.63;1641297;85;20446;-67
2022/03/13 05:07:02;;;;;;;;;;;;;;;-1.16;92.66;100310.44;1626007;87;20162;-67
2022/03/13 05:09:29;;;;;;;;;;;;;;;-1.17;92.56;100312.31;1654821;85;21262;-67
2022/03/13 05:11:57;;;;;;;;;;;;;;;-1.15;92.70;100312.88;1645445;87;20123;-67
2022/03/13 05:14:24;;;;;;;;;;;;;;;-1.16;92.52;100310.44;1650387;85;20422;-67
2022/03/13 05:16:51;;;;;;;;;;;;;;;-1.16;92.33;100314.48;1651440;85;20978;-67
2022/03/13 05:19:20;;;;;;;;;;;;;;;-1.16;92.26;100317.17;1659302;85;20101;-68
2022/03/13 05:21:49;;;;;;;;;;;;;;;-1.15;92.28;100329.05;1646500;85;21203;-68
2022/03/13 05:24:16;;;;;;;;;;;;;;;-1.13;92.25;100327.48;1650167;85;20085;-67
2022/03/13 05:26:45;;;;;;;;;;;;;;;-1.12;92.09;100331.83;1654698;85;20117;-67
2022/03/13 05:29:12;;;;;;;;;;;;;;;-1.10;91.95;100333.25;1646381;85;20107;-67
2022/03/13 05:31:43;;;;;;;;;;;;;;;-1.06;91.95;100333.64;1648213;85;20453;-68
2022/03/13 05:34:11;;;;;;;;;;;;;;;-1.05;91.83;100340.67;1645424;87;21177;-67
2022/03/13 05:36:38;;;;;;;;;;;;;;;-1.02;91.51;100349.67;1654602;85;20132;-67
2022/03/13 05:39:06;;;;;;;;;;;;;;;-1.02;91.37;100353.71;1654768;85;20093;-67
2022/03/13 05:41:33;;;;;;;;;;;;;;;-1.04;91.33;100355.80;1646345;85;20746;-67
2022/03/13 05:44:02;;;;;;;;;;;;;;;-1.05;91.35;100356.84;1660825;85;20156;-68
2022/03/13 05:46:29;;;;;;;;;;;;;;;-1.04;91.23;100366.06;1645611;87;21291;-67
2022/03/13 05:48:55;;;;;;;;;;;;;;;-1.05;91.18;100371.67;1645474;87;20126;-67
2022/03/13 05:51:23;;;;;;;;;;;;;;;-1.04;91.19;100378.19;1650797;85;20210;-67
2022/03/13 05:53:51;;;;;;;;;;;;;;;-1.03;91.05;100373.09;1660812;85;20132;-68
2022/03/13 05:56:18;;;;;;;;;;;;;;;-1.03;90.84;100380.36;1650103;85;20091;-67
2022/03/13 05:58:46;;;;;;;;;;;;;;;-1.03;90.72;100381.19;1649886;85;20623;-68
2022/03/13 06:01:13;;;;;;;;;;;;;;;-1.03;90.65;100379.02;1647722;85;20092;-67
2022/03/13 06:03:42;;;;;;;;;;;;;;;-1.02;90.66;100384.70;1628491;87;20147;-67
2022/03/13 06:06:10;;;;;;;;;;;;;;;-1.01;90.54;100386.36;1635748;87;20698;-67
2022/03/13 06:08:38;;;;;;;;;;;;;;;-1.00;90.36;100392.05;1627261;88;20092;-67
2022/03/13 06:11:06;;;;;;;;;;;;;;;-0.99;90.18;100395.05;1626538;88;20100;-67
2022/03/13 06:13:34;;;;;;;;;;;;;;;-0.99;90.18;100397.74;1629103;88;20121;-67
2022/03/13 06:16:01;;;;;;;;;;;;;;;-1.00;89.80;100401.48;1624846;86;20157;-65
2022/03/13 06:18:29;;;;;;;;;;;;;;;-0.99;89.75;100411.22;1623193;88;20199;-68
2022/03/13 06:20:56;;;;;;;;;;;;;;;-0.98;89.73;100404.78;1621616;88;20104;-68
2022/03/13 06:23:23;;;;;;;;;;;;;;;-0.94;90.33;100404.65;1620977;86;21807;-68
2022/03/13 06:25:51;;;;;;;;;;;;;;;-0.90;89.91;100412.60;1610667;87;20134;-66
2022/03/13 06:28:21;;;;;;;;;;;;;;;-0.90;89.73;100417.98;1612014;87;20191;-70
2022/03/13 06:30:47;;;;;;;;;;;;;;;-0.88;89.47;100421.81;1613501;87;20126;-66
2022/03/13 06:33:15;;;;;;;;;;;;;;;-0.89;89.48;100427.73;1626460;88;20152;-71
2022/03/13 06:35:42;;;;;;;;;;;;;;;-0.86;89.68;100432.68;1624077;88;21121;-74
2022/03/13 06:38:09;;;;;;;;;;;;;;;-0.80;89.68;100428.28;1623992;86;20097;-73
2022/03/13 06:40:38;;;;;;;;;;;;;;;-0.72;89.55;100434.23;1618988;87;20206;-65
2022/03/13 06:43:06;;;;;;;;;;;;;;;-0.67;89.20;100438.44;1610584;89;20178;-66
2022/03/13 06:45:33;;;;;;;;;;;;;;;-0.61;89.23;100435.91;1610445;87;20134;-67
2022/03/13 06:48:00;;;;;;;;;;;;;;;-0.56;88.82;100440.08;1585900;90;21234;-67
2022/03/13 06:50:27;;;;;;;;;;;;;;;-0.55;88.38;100441.21;1585857;90;20480;-68
2022/03/13 06:52:55;;;;;;;;;;;;;;;-0.56;88.16;100445.48;1586038;90;20479;-68
2022/03/13 06:55:23;;;;;;;;;;;;;;;-0.58;88.21;100447.08;1585928;90;20137;-65
2022/03/13 06:57:50;;;;;;;;;;;;;;;-0.59;88.02;100452.69;1585886;90;20140;-67
2022/03/13 07:00:18;;;;;;;;;;;;;;;-0.60;87.99;100454.56;1586237;90;21191;-69
2022/03/13 07:02:45;;;;;;;;;;;;;;;-0.59;88.06;100454.04;1585807;90;20196;-69
2022/03/13 07:05:13;;;;;;;;;;;;;;;-0.59;88.10;100456.22;1587879;88;20180;-69
2022/03/13 07:07:40;;;;;;;;;;;;;;;-0.55;88.04;100467.36;1614394;89;20088;-65
2022/03/13 07:10:12;;;;;;;;;;;;;;;-0.56;87.66;100461.66;1614507;89;20108;-66
2022/03/13 07:12:36;;;;;;;;;;;;;;;-0.55;87.75;100455.22;1614612;88;21161;-65
2022/03/13 07:15:20;;;;;;;;;;;;;;;-0.52;87.62;100466.39;1893392;76;20175;-66
2022/03/13 07:17:47;;;;;;;;;;;;;;;-0.55;87.56;100467.36;1856717;77;20103;-66
2022/03/13 07:20:14;;;;;;;;;;;;;;;-0.56;87.47;100468.41;1855978;77;21206;-67
2022/03/13 07:22:42;;;;;;;;;;;;;;;-0.57;87.35;100479.71;1855984;77;20552;-67
2022/03/13 07:25:09;;;;;;;;;;;;;;;-0.57;87.78;100480.23;1856077;77;20071;-69
2022/03/13 07:27:37;;;;;;;;;;;;;;;-0.56;87.81;100485.41;1856012;77;20083;-73
2022/03/13 07:30:08;;;;;;;;;;;;;;;-0.53;87.56;100490.36;1856000;77;20596;-67
2022/03/13 07:32:35;;;;;;;;;;;;;;;-0.52;87.65;100485.80;1856067;77;21214;-69
2022/03/13 07:35:02;;;;;;;;;;;;;;;-0.51;87.82;100485.58;1855952;77;20441;-73
2022/03/13 07:37:29;;;;;;;;;;;;;;;-0.47;87.78;100487.31;1856047;77;20132;-66
2022/03/13 07:39:58;;;;;;;;;;;;;;;-0.43;87.53;100487.17;1856406;77;20107;-65
2022/03/13 07:42:25;;;;;;;;;;;;;;;-0.42;87.14;100491.52;1849976;77;20120;-63
2022/03/13 07:44:52;;;;;;;;;;;;;;;-0.39;86.86;100491.91;1847091;77;21122;-63
2022/03/13 07:47:20;;;;;;;;;;;;;;;-0.36;86.64;100498.73;1838676;77;20090;-62
2022/03/13 07:49:46;;;;;;;;;;;;;;;-0.32;86.30;100497.77;1843459;77;20120;-62
2022/03/13 07:52:13;;;;;;;;;;;;;;;-0.30;85.70;100491.63;1849903;77;20101;-62
2022/03/13 07:54:41;;;;;;;;;;;;;;;-0.30;85.33;100501.07;1848321;77;20107;-62
2022/03/13 07:57:07;;;;;;;;;;;;;;;-0.31;84.80;100506.98;1847768;77;20649;-63
2022/03/13 07:59:35;;;;;;;;;;;;;;;-0.35;84.36;100503.91;1851174;77;20110;-63
2022/03/13 08:02:02;;;;;;;;;;;;;;;-0.38;84.22;100513.80;1848744;77;20451;-62
2022/03/13 08:04:29;;;;;;;;;;;;;;;-0.41;84.36;100508.02;1845895;77;20088;-62
2022/03/13 08:06:56;;;;;;;;;;;;;;;-0.44;84.23;100511.16;1845938;77;20111;-62
2022/03/13 08:09:23;;;;;;;;;;;;;;;-0.46;84.07;100515.94;1818059;77;21027;-63
2022/03/13 08:11:53;;;;;;;;;;;;;;;-0.47;84.10;100515.63;1846594;77;20135;-63
2022/03/13 08:14:19;;;;;;;;;;;;;;;-0.47;84.27;100512.94;1848650;77;20103;-63
2022/03/13 08:16:46;;;;;;;;;;;;;;;-0.46;84.38;100516.77;1844539;77;20442;-65
2022/03/13 08:19:13;;;;;;;;;;;;;;;-0.44;84.48;100512.50;1825430;78;20075;-62
2022/03/13 08:21:42;;;;;;;;;;;;;;;-0.41;84.37;100518.80;1825634;78;21102;-66
2022/03/13 08:24:08;;;;;;;;;;;;;;;-0.40;84.50;100515.88;1833444;77;20108;-72
2022/03/13 08:26:38;;;;;;;;;;;;;;;-0.34;84.29;100523.62;1843489;77;20076;-69
2022/03/13 08:29:06;;;;;;;;;;;;;;;-0.31;83.41;100525.88;1848398;77;20457;-69
2022/03/13 08:31:33;;;;;;;;;;;;;;;-0.32;83.12;100522.88;1848272;77;20107;-70
2022/03/13 08:34:00;;;;;;;;;;;;;;;-0.31;83.20;100525.05;1851127;77;21081;-68
2022/03/13 08:36:27;;;;;;;;;;;;;;;-0.31;83.27;100527.23;1851640;77;20111;-66
2022/03/13 08:38:54;;;;;;;;;;;;;;;-0.30;82.87;100531.58;1848850;77;20136;-68
2022/03/13 08:41:21;;;;;;;;;;;;;;;-0.30;82.57;100535.63;1847435;77;20392;-67
2022/03/13 08:43:48;;;;;;;;;;;;;;;-0.32;82.57;100538.24;1851679;77;20413;-66
2022/03/13 08:46:15;;;;;;;;;;;;;;;-0.35;82.94;100544.91;1847521;77;21275;-68
2022/03/13 08:48:42;;;;;;;;;;;;;;;-0.37;83.13;100547.00;1846048;77;20087;-70
2022/03/13 08:51:12;;;;;;;;;;;;;;;-0.38;83.00;100546.69;1845723;77;20091;-69
2022/03/13 08:53:40;;;;;;;;;;;;;;;-0.42;82.40;100555.75;1846619;77;20162;-69
2022/03/13 08:56:10;;;;;;;;;;;;;;;-0.47;82.57;100550.70;1843540;77;20406;-68
2022/03/13 08:58:37;;;;;;;;;;;;;;;-0.53;82.53;100559.14;1843299;77;21121;-67
2022/03/13 09:01:04;;;;;;;;;;;;;;;-0.59;82.34;100564.09;1851225;77;20473;-67
2022/03/13 09:03:32;;;;;;;;;;;;;;;-0.61;82.25;100572.09;1845513;77;20087;-66
2022/03/13 09:05:59;;;;;;;;;;;;;;;-0.64;82.36;100572.53;1846070;77;20127;-68
2022/03/13 09:08:27;;;;;;;;;;;;;;;-0.71;82.09;100573.92;1849076;77;20115;-68
2022/03/13 09:10:55;;;;;;;;;;;;;;;-0.76;82.33;100579.97;1836025;77;21232;-66
2022/03/13 09:13:25;;;;;;;;;;;;;;;-0.78;82.35;100579.87;1852113;77;20087;-69
2022/03/13 09:15:53;;;;;;;;;;;;;;;-0.79;82.63;100576.35;1855266;77;20111;-66
2022/03/13 09:18:20;;;;;;;;;;;;;;;-0.79;82.56;100579.05;1855243;77;20111;-68
2022/03/13 09:20:46;;;;;;;;;;;;;;;-0.76;82.69;100582.66;1855335;77;20087;-69
2022/03/13 09:23:13;;;;;;;;;;;;;;;-0.75;82.31;100586.18;1855422;77;21127;-68
2022/03/13 09:25:40;;;;;;;;;;;;;;;-0.74;82.65;100585.97;1855292;77;20099;-71
2022/03/13 09:28:08;;;;;;;;;;;;;;;-0.74;82.44;100595.41;1855396;77;20095;-73
2022/03/13 09:30:36;;;;;;;;;;;;;;;-0.73;82.45;100586.80;1855289;77;20080;-67
2022/03/13 09:33:04;;;;;;;;;;;;;;;-0.72;82.02;100596.02;1855352;77;20115;-70
2022/03/13 09:35:32;;;;;;;;;;;;;;;-0.73;82.53;100597.58;1855410;77;21216;-69
2022/03/13 09:37:58;;;;;;;;;;;;;;;-0.74;82.27;100592.70;1855183;77;20115;-69
2022/03/13 09:40:27;;;;;;;;;;;;;;;-0.76;82.19;100596.14;1855328;77;20107;-72
2022/03/13 09:42:55;;;;;;;;;;;;;;;-0.78;82.04;100600.92;1855362;77;20123;-70
2022/03/13 09:45:23;;;;;;;;;;;;;;;-0.77;82.19;100602.58;1855237;77;20104;-65
2022/03/13 09:47:50;;;;;;;;;;;;;;;-0.76;82.42;100606.93;1855279;77;21134;-65
2022/03/13 09:50:18;;;;;;;;;;;;;;;-0.72;82.37;100608.15;1855647;77;20092;-65
2022/03/13 09:52:46;;;;;;;;;;;;;;;-0.69;82.47;100607.72;1855272;77;20067;-65
2022/03/13 09:55:14;;;;;;;;;;;;;;;-0.63;82.51;100614.12;1847389;77;20126;-66
2022/03/13 09:57:41;;;;;;;;;;;;;;;-0.57;82.37;100619.96;1844614;77;20139;-66
2022/03/13 10:00:13;;;;;;;;;;;;;;;-0.53;82.09;100623.05;1844049;77;21171;-65
2022/03/13 10:02:40;;;;;;;;;;;;;;;-0.54;81.43;100626.27;1841660;77;20089;-64
2022/03/13 10:05:09;;;;;;;;;;;;;;;-0.57;81.00;100626.70;1847454;77;20140;-65
2022/03/13 10:07:58;;;;;;;;;;;;;;;-0.63;80.93;100629.47;1849298;77;20372;-66
2022/03/13 10:10:30;;;;;;;;;;;;;;;-0.72;80.76;100631.07;1843918;77;20115;-66
2022/03/13 10:13:00;;;;;;;;;;;;;;;-0.79;81.16;100637.53;1844288;77;21750;-66
2022/03/13 10:15:32;;;;;;;;;;;;;;;-0.82;81.56;100637.44;1839645;77;20434;-66
2022/03/13 10:17:59;;;;;;;;;;;;;;;-0.80;82.14;100639.41;1824035;77;20075;-65
2022/03/13 10:20:27;;;;;;;;;;;;;;;-0.76;82.12;100644.67;1804339;77;20115;-64
2022/03/13 10:23:10;;;;;;;;;;;;;;;-0.75;82.04;100643.63;1845494;77;20077;-65
2022/03/13 10:25:35;;;;;;;;;;;;;;;-0.76;81.88;100643.33;1852586;77;21867;-63
2022/03/13 10:28:14;;;;;;;;;;;;;;;-0.77;82.27;100643.55;1845910;77;20191;-64
2022/03/13 10:30:41;;;;;;;;;;;;;;;-0.74;82.35;100649.85;1840103;77;20076;-66
2022/03/13 10:33:08;;;;;;;;;;;;;;;-0.73;82.22;100643.42;1840172;77;20207;-64
2022/03/13 10:35:36;;;;;;;;;;;;;;;-0.72;82.29;100649.95;1852149;77;20169;-64
2022/03/13 10:38:17;;;;;;;;;;;;;;;-0.70;82.29;100647.86;1846160;77;20489;-66
2022/03/13 10:40:48;;;;;;;;;;;;;;;-0.69;82.34;100649.52;1844979;77;20091;-66
2022/03/13 10:43:19;;;;;;;;;;;;;;;-0.64;82.12;100653.44;1848951;77;20151;-65
2022/03/13 10:45:51;;;;;;;;;;;;;;;-0.62;82.67;100647.31;1843845;77;20132;-65
2022/03/13 10:48:20;;;;;;;;;;;;;;;-0.58;82.72;100646.66;1848857;77;20132;-66
2022/03/13 10:50:50;;;;;;;;;;;;;;;-0.50;82.45;100649.59;1840160;77;21123;-67
2022/03/13 10:53:18;;;;;;;;;;;;;;;-0.49;82.12;100648.55;1842489;77;20088;-65
2022/03/13 10:56:04;;;;;;;;;;;;;;;-0.49;81.95;100650.73;1844662;77;20103;-66
2022/03/13 10:58:32;;;;;;;;;;;;;;;-0.49;82.24;100652.59;1827342;77;20452;-66
2022/03/13 11:01:05;;;;;;;;;;;;;;;-0.48;81.97;100655.60;1844927;77;20111;-66
2022/03/13 11:03:34;;;;;;;;;;;;;;;-0.46;82.01;100653.52;1849422;77;21983;-66
2022/03/13 11:06:03;;;;;;;;;;;;;;;-0.42;82.01;100658.78;1837098;77;20186;-66
2022/03/13 11:08:31;;;;;;;;;;;;;;;-0.38;81.78;100654.61;1843346;77;20084;-65
2022/03/13 11:10:58;;;;;;;;;;;;;;;-0.36;81.50;100661.97;1847654;77;20127;-65
2022/03/13 11:13:29;;;;;;;;;;;;;;;-0.34;81.28;100658.53;1819536;77;20091;-65
2022/03/13 11:15:59;;;;;;;;;;;;;;;-0.31;81.15;100660.80;1844093;77;21149;-63
2022/03/13 11:18:32;;;;;;;;;;;;;;;-0.25;81.11;100665.84;1848055;77;20103;-63
2022/03/13 11:21:00;;;;;;;;;;;;;;;-0.22;80.56;100667.59;1843973;77;20132;-63
2022/03/13 11:23:31;;;;;;;;;;;;;;;-0.17;80.24;100674.50;1843222;77;20466;-64
2022/03/13 11:25:58;;;;;;;;;;;;;;;-0.12;79.65;100671.16;1850365;77;20103;-65
2022/03/13 11:28:26;;;;;;;;;;;;;;;-0.08;79.53;100671.84;1844914;77;21224;-64
2022/03/13 11:30:55;;;;;;;;;;;;;;;-0.05;77.84;100674.11;1847097;77;20138;-64
2022/03/13 11:33:34;;;;;;;;;;;;;;;-0.07;77.05;100672.67;1840203;77;20115;-65
2022/03/13 11:36:28;;;;;;;;;;;;;;;-0.08;76.83;100673.72;1847292;77;20111;-64
2022/03/13 11:39:03;;;;;;;;;;;;;;;-0.06;76.93;100675.16;1847855;77;20111;-65
2022/03/13 11:41:44;;;;;;;;;;;;;;;-0.04;76.51;100669.02;1844110;77;21345;-64
2022/03/13 11:44:22;;;;;;;;;;;;;;;-0.02;76.21;100666.09;1846315;77;20076;-65
2022/03/13 11:46:51;;;;;;;;;;;;;;;0.03;76.70;100666.77;1846876;77;20092;-78
2022/03/13 11:49:37;;;;;;;;;;;;;;;0.08;75.42;100673.16;1847190;77;20091;-68
2022/03/13 11:52:20;;;;;;;;;;;;;;;0.12;74.72;100668.14;1855203;77;20414;-68
2022/03/13 11:54:55;;;;;;;;;;;;;;;0.15;74.33;100669.88;1854719;77;21208;-69
2022/03/13 11:57:26;;;;;;;;;;;;;;;0.20;74.12;100671.40;1842927;78;20128;-63
2022/03/13 12:00:15;;;;;;;;;;;;;;;0.21;73.03;100680.33;1812838;78;20084;-68
2022/03/13 12:02:46;;;;;;;;;;;;;;;0.19;72.19;100677.84;1842871;77;20084;-66
2022/03/13 12:05:30;;;;;;;;;;;;;;;0.13;71.65;100676.55;1843255;77;20396;-67
2022/03/13 12:08:05;;;;;;;;;;;;;;;0.09;71.88;100682.08;1842839;78;21251;-67
2022/03/13 12:10:34;;;;;;;;;;;;;;;0.07;72.04;100687.70;1813833;78;20270;-66
2022/03/13 12:13:04;;;;;;;;;;;;;;;0.10;71.86;100689.97;1843414;77;20081;-69
2022/03/13 12:15:31;;;;;;;;;;;;;;;0.16;72.02;100692.31;1829504;77;20066;-66
2022/03/13 12:18:01;;;;;;;;;;;;;;;0.24;71.77;100691.52;1834318;77;20075;-66
2022/03/13 12:20:28;;;;;;;;;;;;;;;0.32;71.01;100691.77;1810908;77;21113;-66
2022/03/13 12:22:59;;;;;;;;;;;;;;;0.35;70.27;100694.03;1845760;77;20111;-68
2022/03/13 12:25:27;;;;;;;;;;;;;;;0.35;69.39;100692.68;1847104;77;20080;-70
2022/03/13 12:27:54;;;;;;;;;;;;;;;0.35;68.94;100692.68;1848280;77;20122;-69
2022/03/13 12:30:27;;;;;;;;;;;;;;;0.39;68.67;100696.59;1846374;77;20211;-69
2022/03/13 12:32:58;;;;;;;;;;;;;;;0.38;68.12;100703.05;1844247;77;21102;-69
2022/03/13 12:35:26;;;;;;;;;;;;;;;0.37;67.65;100705.44;1841833;77;20153;-69
2022/03/13 12:37:55;;;;;;;;;;;;;;;0.30;67.28;100701.44;1845512;77;20107;-67
2022/03/13 12:40:23;;;;;;;;;;;;;;;0.25;67.30;100702.63;1851387;77;20514;-66
2022/03/13 12:42:54;;;;;;;;;;;;;;;0.22;66.84;100705.77;1852513;77;20263;-66
2022/03/13 12:45:22;;;;;;;;;;;;;;;0.16;67.05;100709.86;1845503;77;21091;-67
2022/03/13 12:47:55;;;;;;;;;;;;;;;0.09;67.31;100709.91;1852445;77;20123;-67